createdAt,value
2019-01-20T00:00:57.176Z,32.40
2019-01-20T00:03:24.254Z,35.57
2019-01-20T00:05:51.340Z,30.23
2019-01-20T00:08:19.538Z,30.63
2019-01-20T00:10:46.703Z,35.60
2019-01-20T00:13:13.898Z,27.97
2019-01-20T00:15:41.915Z,30.77
2019-01-20T00:18:09.088Z,35.40
2019-01-20T00:20:36.658Z,31.70
2019-01-20T00:23:03.804Z,31.47
2019-01-20T00:25:33.243Z,31.77
2019-01-20T00:28:00.577Z,34.00
2019-01-20T00:30:27.742Z,32.97
2019-01-20T00:32:55.122Z,29.93
2019-01-20T00:35:22.131Z,32.07
2019-01-20T00:37:49.825Z,36.70
2019-01-20T00:40:17.042Z,32.27
2019-01-20T00:42:44.267Z,32.53
2019-01-20T00:45:13.523Z,33.50
2019-01-20T00:47:40.541Z,32.57
2019-01-20T00:50:09.662Z,34.63
2019-01-20T00:52:36.843Z,30.73
2019-01-20T00:55:05.451Z,34.27
2019-01-20T00:57:32.622Z,32.77
2019-01-20T00:59:59.842Z,37.07
2019-01-20T01:02:27.101Z,30.17
2019-01-20T01:04:54.465Z,35.70
2019-01-20T01:07:21.799Z,33.53
2019-01-20T01:09:48.875Z,35.10
2019-01-20T01:12:17.406Z,36.13
2019-01-20T01:14:44.626Z,35.90
2019-01-20T01:17:12.171Z,40.60
2019-01-20T01:19:39.355Z,39.20
2019-01-20T01:22:06.623Z,39.70
2019-01-20T01:24:33.707Z,36.63
2019-01-20T01:27:00.658Z,41.80
2019-01-20T01:29:28.327Z,36.90
2019-01-20T01:31:55.468Z,36.73
2019-01-20T01:34:22.859Z,38.60
2019-01-20T01:36:49.822Z,34.70
2019-01-20T01:39:17.039Z,43.37
2019-01-20T01:41:44.100Z,36.50
2019-01-20T01:44:11.460Z,37.73
2019-01-20T01:46:38.465Z,39.37
2019-01-20T01:49:05.771Z,42.57
2019-01-20T01:51:32.893Z,38.53
2019-01-20T01:54:00.027Z,36.73
2019-01-20T01:56:27.072Z,35.43
2019-01-20T01:58:55.255Z,34.17
2019-01-20T02:01:22.346Z,38.73
2019-01-20T02:03:49.338Z,33.57
2019-01-20T02:06:16.679Z,36.20
2019-01-20T02:08:43.806Z,36.70
2019-01-20T02:11:11.040Z,36.67
2019-01-20T02:13:38.779Z,37.70
2019-01-20T02:16:06.010Z,33.33
2019-01-20T02:18:33.156Z,41.70
2019-01-20T02:21:00.875Z,33.57
2019-01-20T02:23:27.897Z,39.73
2019-01-20T02:25:54.948Z,36.90
2019-01-20T02:28:21.926Z,42.00
2019-01-20T02:30:49.014Z,38.53
2019-01-20T02:33:16.391Z,39.03
2019-01-20T02:35:43.385Z,35.90
2019-01-20T02:38:10.412Z,39.50
2019-01-20T02:40:37.396Z,39.50
2019-01-20T02:43:17.519Z,41.13
2019-01-20T02:45:44.844Z,41.57
2019-01-20T02:48:11.894Z,41.43
2019-01-20T02:50:39.094Z,42.80
2019-01-20T02:53:06.467Z,42.93
2019-01-20T02:55:33.558Z,43.40
2019-01-20T02:58:02.019Z,39.50
2019-01-20T03:00:29.390Z,42.40
2019-01-20T03:02:57.373Z,40.60
2019-01-20T03:05:24.633Z,42.90
2019-01-20T03:07:51.595Z,39.73
2019-01-20T03:10:18.742Z,47.57
2019-01-20T03:12:46.024Z,41.60
2019-01-20T03:15:13.568Z,41.57
2019-01-20T03:17:40.623Z,42.60
2019-01-20T03:20:10.956Z,45.93
2019-01-20T03:22:39.074Z,40.97
2019-01-20T03:25:08.442Z,46.47
2019-01-20T03:27:35.435Z,40.40
2019-01-20T03:30:04.256Z,38.80
2019-01-20T03:32:32.268Z,42.23
2019-01-20T03:34:59.427Z,37.03
2019-01-20T03:37:26.756Z,44.60
2019-01-20T03:39:53.922Z,39.07
2019-01-20T03:42:21.352Z,45.43
2019-01-20T03:44:48.329Z,38.10
2019-01-20T03:47:15.643Z,40.93
2019-01-20T03:49:43.355Z,39.00
2019-01-20T03:52:10.427Z,45.13
2019-01-20T03:54:37.501Z,42.13
2019-01-20T03:57:23.546Z,44.90
2019-01-20T03:59:50.716Z,45.50
2019-01-20T04:02:19.728Z,50.30
2019-01-20T04:04:46.818Z,47.97
2019-01-20T04:07:14.035Z,45.33
2019-01-20T04:09:41.386Z,44.50
2019-01-20T04:12:08.646Z,46.70
2019-01-20T04:14:35.711Z,43.57
2019-01-20T04:17:02.920Z,50.37
2019-01-20T04:19:30.132Z,44.20
2019-01-20T04:21:57.143Z,44.47
2019-01-20T04:24:24.391Z,46.10
2019-01-20T04:26:51.379Z,46.07
2019-01-20T04:29:19.113Z,50.27
2019-01-20T04:31:46.294Z,50.40
2019-01-20T04:34:13.294Z,48.53
2019-01-20T04:36:40.382Z,45.13
2019-01-20T04:39:07.360Z,49.27
2019-01-20T04:41:34.927Z,44.87
2019-01-20T04:44:01.896Z,45.83
2019-01-20T04:46:28.955Z,47.67
2019-01-20T04:48:56.061Z,43.97
2019-01-20T04:51:23.050Z,44.70
2019-01-20T04:53:50.475Z,44.27
2019-01-20T04:56:17.881Z,43.73
2019-01-20T04:58:44.892Z,43.53
2019-01-20T05:01:12.331Z,48.83
2019-01-20T05:03:39.423Z,46.43
2019-01-20T05:06:06.597Z,47.93
2019-01-20T05:08:33.713Z,55.00
2019-01-20T05:11:00.693Z,42.63
2019-01-20T05:13:27.763Z,44.03
2019-01-20T05:15:54.862Z,44.43
2019-01-20T05:18:21.983Z,43.40
2019-01-20T05:20:49.165Z,43.93
2019-01-20T05:23:16.170Z,42.93
2019-01-20T05:25:43.415Z,42.27
2019-01-20T05:28:10.491Z,42.70
2019-01-20T05:30:38.490Z,46.60
2019-01-20T05:33:05.930Z,44.60
2019-01-20T05:35:33.295Z,41.83
2019-01-20T05:38:00.339Z,44.33
2019-01-20T05:40:28.186Z,53.20
2019-01-20T05:42:55.440Z,45.03
2019-01-20T05:45:25.038Z,47.77
2019-01-20T05:47:52.555Z,45.13
2019-01-20T05:50:19.872Z,44.53
2019-01-20T05:52:46.825Z,41.13
2019-01-20T05:55:14.701Z,43.87
2019-01-20T05:57:42.083Z,44.30
2019-01-20T06:00:17.573Z,39.93
2019-01-20T06:02:44.742Z,48.53
2019-01-20T06:05:12.290Z,44.73
2019-01-20T06:07:39.389Z,42.63
2019-01-20T06:10:08.323Z,45.67
2019-01-20T06:12:35.878Z,47.30
2019-01-20T06:15:03.972Z,48.90
2019-01-20T06:17:31.004Z,43.70
2019-01-20T06:19:58.193Z,39.20
2019-01-20T06:22:25.536Z,42.47
2019-01-20T06:24:52.667Z,45.20
2019-01-20T06:27:20.011Z,47.00
2019-01-20T06:29:46.994Z,37.50
2019-01-20T06:32:13.990Z,43.73
2019-01-20T06:34:41.068Z,39.37
2019-01-20T06:37:08.045Z,39.03
2019-01-20T06:39:37.387Z,40.63
2019-01-20T06:42:04.407Z,38.50
2019-01-20T06:44:31.366Z,39.83
2019-01-20T06:46:58.471Z,40.00
2019-01-20T06:49:25.801Z,39.37
2019-01-20T06:51:52.779Z,40.33
2019-01-20T06:54:19.890Z,43.03
2019-01-20T06:56:47.249Z,42.17
2019-01-20T06:59:14.570Z,40.40
2019-01-20T07:01:41.729Z,42.07
2019-01-20T07:04:08.780Z,42.57
2019-01-20T07:06:35.775Z,40.03
2019-01-20T07:09:05.939Z,39.63
2019-01-20T07:11:32.936Z,41.13
2019-01-20T07:14:00.443Z,40.30
2019-01-20T07:16:27.443Z,41.20
2019-01-20T07:18:56.384Z,42.97
2019-01-20T07:21:23.359Z,41.47
2019-01-20T07:23:50.832Z,45.30
2019-01-20T07:26:17.798Z,45.70
2019-01-20T07:28:44.787Z,43.30
2019-01-20T07:31:11.820Z,45.53
2019-01-20T07:33:38.895Z,42.53
2019-01-20T07:36:06.029Z,43.13
2019-01-20T07:38:33.137Z,47.83
2019-01-20T07:41:00.500Z,45.77
2019-01-20T07:43:27.494Z,49.57
2019-01-20T07:45:54.669Z,42.10
2019-01-20T07:48:22.644Z,43.93
2019-01-20T07:50:49.697Z,42.53
2019-01-20T07:53:16.803Z,43.13
2019-01-20T07:55:43.890Z,45.17
2019-01-20T07:58:11.054Z,47.73
2019-01-20T08:00:38.190Z,49.73
2019-01-20T08:03:05.246Z,43.60
2019-01-20T08:05:32.453Z,46.23
2019-01-20T08:07:59.959Z,51.93
2019-01-20T08:10:28.700Z,49.83
2019-01-20T08:12:56.004Z,43.37
2019-01-20T08:15:23.755Z,51.73
2019-01-20T08:17:51.110Z,50.87
2019-01-20T08:20:18.742Z,49.67
2019-01-20T08:22:46.064Z,52.33
2019-01-20T08:25:14.927Z,48.80
2019-01-20T08:27:42.686Z,47.07
2019-01-20T08:30:13.416Z,47.33
2019-01-20T08:32:40.455Z,53.13
2019-01-20T08:35:08.525Z,54.53
2019-01-20T08:37:35.720Z,54.30
2019-01-20T08:40:04.568Z,53.43
2019-01-20T08:42:32.052Z,54.63
2019-01-20T08:44:59.075Z,51.47
2019-01-20T08:47:42.293Z,53.97
2019-01-20T08:50:12.833Z,54.10
2019-01-20T08:52:39.920Z,43.20
2019-01-20T08:55:07.965Z,43.60
2019-01-20T08:57:35.134Z,44.57
2019-01-20T09:00:03.720Z,44.30
2019-01-20T09:02:30.772Z,41.87
2019-01-20T09:04:57.882Z,45.40
2019-01-20T09:07:25.074Z,41.67
2019-01-20T09:09:52.363Z,41.60
2019-01-20T09:12:19.649Z,40.70
2019-01-20T09:14:47.137Z,34.80
2019-01-20T09:17:14.223Z,37.67
2019-01-20T09:19:41.361Z,38.07
2019-01-20T09:22:09.287Z,34.40
2019-01-20T09:24:36.287Z,34.73
2019-01-20T09:27:03.339Z,33.60
2019-01-20T09:29:30.654Z,34.33
2019-01-20T09:31:57.845Z,36.07
2019-01-20T09:34:25.246Z,31.80
2019-01-20T09:36:52.392Z,38.30
2019-01-20T09:39:20.080Z,40.37
2019-01-20T09:41:47.433Z,36.73
2019-01-20T09:44:14.773Z,37.23
2019-01-20T09:46:42.237Z,37.57
2019-01-20T09:49:09.689Z,36.77
2019-01-20T09:51:36.826Z,34.07
2019-01-20T09:54:04.314Z,35.50
2019-01-20T09:56:35.734Z,36.70
2019-01-20T09:59:05.355Z,38.37
2019-01-20T10:01:32.629Z,39.17
2019-01-20T10:04:00.125Z,39.50
2019-01-20T10:06:27.215Z,39.43
2019-01-20T10:08:54.288Z,41.87
2019-01-20T10:11:22.874Z,41.97
2019-01-20T10:13:54.750Z,40.57
2019-01-20T10:16:19.014Z,46.10
2019-01-20T10:18:46.070Z,47.60
2019-01-20T10:21:13.424Z,49.33
2019-01-20T10:23:40.524Z,47.33
2019-01-20T10:26:07.696Z,45.77
2019-01-20T10:28:35.141Z,44.33
2019-01-20T10:31:02.132Z,45.87
2019-01-20T10:33:29.595Z,46.80
2019-01-20T10:36:06.195Z,41.30
2019-01-20T10:38:37.295Z,42.83
2019-01-20T10:41:03.420Z,40.37
2019-01-20T10:43:30.608Z,47.43
2019-01-20T10:45:57.791Z,47.13
2019-01-20T10:48:25.123Z,44.07
2019-01-20T10:50:52.146Z,45.97
2019-01-20T10:53:19.415Z,40.53
2019-01-20T10:55:46.525Z,39.77
2019-01-20T10:58:14.387Z,37.60
2019-01-20T11:00:41.952Z,35.47
2019-01-20T11:03:09.273Z,36.27
2019-01-20T11:05:36.470Z,42.17
2019-01-20T11:08:03.897Z,35.90
2019-01-20T11:10:31.166Z,36.03
2019-01-20T11:12:58.944Z,40.07
2019-01-20T11:15:26.674Z,44.30
2019-01-20T11:17:53.762Z,40.53
2019-01-20T11:20:21.114Z,40.53
2019-01-20T11:22:48.215Z,38.03
2019-01-20T11:25:18.567Z,34.10
2019-01-20T11:27:45.626Z,34.30
2019-01-20T11:30:13.548Z,32.47
2019-01-20T11:32:42.434Z,35.03
2019-01-20T11:35:11.981Z,34.30
2019-01-20T11:37:39.614Z,33.43
2019-01-20T11:40:08.805Z,35.57
2019-01-20T11:42:35.788Z,35.13
2019-01-20T11:45:04.617Z,33.40
2019-01-20T11:47:31.819Z,34.80
2019-01-20T11:49:58.778Z,34.37
2019-01-20T11:52:25.764Z,32.70
2019-01-20T11:54:53.174Z,36.37
2019-01-20T11:57:20.355Z,38.07
2019-01-20T11:59:47.446Z,37.97
2019-01-20T12:02:14.456Z,41.43
2019-01-20T12:04:41.451Z,39.37
2019-01-20T12:07:08.415Z,41.50
2019-01-20T12:09:35.475Z,43.57
2019-01-20T12:12:02.533Z,42.17
2019-01-20T12:14:29.844Z,41.73
2019-01-20T12:16:57.141Z,45.67
2019-01-20T12:19:24.154Z,45.47
2019-01-20T12:21:51.236Z,45.57
2019-01-20T12:24:19.466Z,45.47
2019-01-20T12:26:46.847Z,45.10
2019-01-20T12:29:14.315Z,47.93
2019-01-20T12:31:41.729Z,42.63
2019-01-20T12:34:09.331Z,37.90
2019-01-20T12:36:36.483Z,45.63
2019-01-20T12:39:07.586Z,44.43
2019-01-20T12:41:35.391Z,43.50
2019-01-20T12:44:02.938Z,42.77
2019-01-20T12:46:29.954Z,41.93
2019-01-20T12:48:57.117Z,43.07
2019-01-20T12:51:28.459Z,44.40
2019-01-20T12:53:53.458Z,44.47
2019-01-20T12:56:20.931Z,40.53
2019-01-20T12:58:48.125Z,41.83
2019-01-20T13:01:15.622Z,41.60
2019-01-20T13:03:43.536Z,47.17
2019-01-20T13:06:10.855Z,40.33
2019-01-20T13:08:38.103Z,44.03
2019-01-20T13:11:05.396Z,45.27
2019-01-20T13:13:32.767Z,45.20
2019-01-20T13:16:00.271Z,42.87
2019-01-20T13:18:27.260Z,41.97
2019-01-20T13:20:54.603Z,44.90
2019-01-20T13:23:21.944Z,45.43
2019-01-20T13:25:49.750Z,48.07
2019-01-20T13:28:18.282Z,48.50
2019-01-20T13:30:45.744Z,48.33
2019-01-20T13:33:12.780Z,42.87
2019-01-20T13:35:40.094Z,48.57
2019-01-20T13:38:10.305Z,46.27
2019-01-20T13:40:58.913Z,44.40
2019-01-20T13:43:26.978Z,44.13
2019-01-20T13:45:54.388Z,47.87
2019-01-20T13:48:21.443Z,45.60
2019-01-20T13:50:48.478Z,50.80
2019-01-20T13:53:15.640Z,47.50
2019-01-20T13:55:42.695Z,43.67
2019-01-20T13:58:09.711Z,42.43
2019-01-20T14:00:36.935Z,42.13
2019-01-20T14:03:04.155Z,38.17
2019-01-20T14:05:31.738Z,42.57
2019-01-20T14:07:58.827Z,48.63
2019-01-20T14:10:26.385Z,46.20
2019-01-20T14:12:53.893Z,39.17
2019-01-20T14:15:20.994Z,44.57
2019-01-20T14:17:48.112Z,46.77
2019-01-20T14:20:17.271Z,41.17
2019-01-20T14:22:45.815Z,39.73
2019-01-20T14:25:14.963Z,40.83
2019-01-20T14:27:42.123Z,41.97
2019-01-20T14:30:14.037Z,41.27
2019-01-20T14:32:41.555Z,48.63
2019-01-20T14:35:09.150Z,44.43
2019-01-20T14:37:36.226Z,45.83
2019-01-20T14:40:04.574Z,44.97
2019-01-20T14:42:31.934Z,45.13
2019-01-20T14:45:01.187Z,49.33
2019-01-20T14:47:28.122Z,44.77
2019-01-20T14:49:55.357Z,49.97
2019-01-20T14:52:22.412Z,45.50
2019-01-20T14:54:49.667Z,48.70
2019-01-20T14:57:16.730Z,46.23
2019-01-20T14:59:43.718Z,49.43
2019-01-20T15:02:10.751Z,48.83
2019-01-20T15:04:37.770Z,52.33
2019-01-20T15:07:04.861Z,50.03
2019-01-20T15:09:31.871Z,46.03
2019-01-20T15:11:59.201Z,49.47
2019-01-20T15:14:26.518Z,45.57
2019-01-20T15:16:53.748Z,46.80
2019-01-20T15:19:21.855Z,48.47
2019-01-20T15:21:49.058Z,46.83
2019-01-20T15:24:16.289Z,48.63
2019-01-20T15:26:43.846Z,47.33
2019-01-20T15:29:10.855Z,50.67
2019-01-20T15:31:38.465Z,49.43
2019-01-20T15:34:05.934Z,50.30
2019-01-20T15:36:33.867Z,48.33
2019-01-20T15:39:01.006Z,47.23
2019-01-20T15:41:28.839Z,46.30
2019-01-20T15:43:55.916Z,52.77
2019-01-20T15:46:23.347Z,49.57
2019-01-20T15:48:50.722Z,49.37
2019-01-20T15:51:17.733Z,49.77
2019-01-20T15:53:47.374Z,48.47
2019-01-20T15:56:14.404Z,45.37
2019-01-20T15:58:42.809Z,52.07
2019-01-20T16:01:10.915Z,50.40
2019-01-20T16:03:37.912Z,54.30
2019-01-20T16:06:05.044Z,57.90
2019-01-20T16:08:32.092Z,53.43
2019-01-20T16:10:59.113Z,54.60
2019-01-20T16:13:26.323Z,48.00
2019-01-20T16:15:53.528Z,48.80
2019-01-20T16:18:20.523Z,49.47
2019-01-20T16:20:47.564Z,50.93
2019-01-20T16:23:14.883Z,54.23
2019-01-20T16:25:42.179Z,57.13
2019-01-20T16:28:10.232Z,49.70
2019-01-20T16:30:38.560Z,50.90
2019-01-20T16:33:06.198Z,45.77
2019-01-20T16:35:33.416Z,47.27
2019-01-20T16:38:01.362Z,46.27
2019-01-20T16:40:28.587Z,45.33
2019-01-20T16:42:55.735Z,48.60
2019-01-20T16:45:32.003Z,44.87
2019-01-20T16:47:55.030Z,46.30
2019-01-20T16:50:22.910Z,45.17
2019-01-20T16:52:54.574Z,50.87
2019-01-20T16:55:19.242Z,48.27
2019-01-20T16:57:46.238Z,48.43
2019-01-20T17:00:16.724Z,52.23
2019-01-20T17:02:43.830Z,51.73
2019-01-20T17:05:11.082Z,40.63
2019-01-20T17:07:38.312Z,47.63
2019-01-20T17:10:12.230Z,48.63
2019-01-20T17:12:40.636Z,53.23
2019-01-20T17:15:09.910Z,48.50
2019-01-20T17:17:36.942Z,45.37
2019-01-20T17:20:05.195Z,47.37
2019-01-20T17:22:33.218Z,49.50
2019-01-20T17:25:00.306Z,48.07
2019-01-20T17:27:27.615Z,46.80
2019-01-20T17:29:54.715Z,49.93
2019-01-20T17:32:22.027Z,49.10
2019-01-20T17:34:49.136Z,53.07
2019-01-20T17:37:16.267Z,48.83
2019-01-20T17:39:43.376Z,47.03
2019-01-20T17:42:10.418Z,50.50
2019-01-20T17:44:38.088Z,56.37
2019-01-20T17:47:05.207Z,50.53
2019-01-20T17:49:32.170Z,51.07
2019-01-20T17:51:59.221Z,49.07
2019-01-20T17:54:26.630Z,48.37
2019-01-20T17:56:54.412Z,48.83
2019-01-20T17:59:21.424Z,46.83
2019-01-20T18:01:48.853Z,48.83
2019-01-20T18:04:15.996Z,52.03
2019-01-20T18:06:43.185Z,52.53
2019-01-20T18:09:10.454Z,52.33
2019-01-20T18:11:37.542Z,54.63
2019-01-20T18:14:04.728Z,60.20
2019-01-20T18:16:31.779Z,49.40
2019-01-20T18:18:58.831Z,54.37
2019-01-20T18:21:27.070Z,51.63
2019-01-20T18:23:54.432Z,53.40
2019-01-20T18:26:21.437Z,50.50
2019-01-20T18:28:48.829Z,57.03
2019-01-20T18:31:16.087Z,49.57
2019-01-20T18:33:43.083Z,54.33
2019-01-20T18:36:10.398Z,53.43
2019-01-20T18:38:38.124Z,51.23
2019-01-20T18:41:05.318Z,53.87
2019-01-20T18:43:32.838Z,54.43
2019-01-20T18:46:01.779Z,52.93
2019-01-20T18:48:28.958Z,47.70
2019-01-20T18:50:55.946Z,45.93
2019-01-20T18:53:23.142Z,52.50
2019-01-20T18:55:50.488Z,49.37
2019-01-20T18:58:17.454Z,46.80
2019-01-20T19:00:47.141Z,48.87
2019-01-20T19:03:15.081Z,44.13
2019-01-20T19:05:42.733Z,45.30
2019-01-20T19:08:10.150Z,46.20
2019-01-20T19:10:37.456Z,47.00
2019-01-20T19:13:04.736Z,48.20
2019-01-20T19:15:32.241Z,49.27
2019-01-20T19:17:59.752Z,47.93
2019-01-20T19:20:27.006Z,48.03
2019-01-20T19:22:55.033Z,47.43
2019-01-20T19:25:22.328Z,48.03
2019-01-20T19:27:49.417Z,48.07
2019-01-20T19:30:19.396Z,48.37
2019-01-20T19:32:46.551Z,51.67
2019-01-20T19:35:14.274Z,43.53
2019-01-20T19:37:41.803Z,48.17
2019-01-20T19:40:09.833Z,55.10
2019-01-20T19:42:37.058Z,52.30
2019-01-20T19:45:05.878Z,49.87
2019-01-20T19:47:33.058Z,51.93
2019-01-20T19:50:00.457Z,53.47
2019-01-20T19:52:27.668Z,50.30
2019-01-20T19:54:55.064Z,53.97
2019-01-20T19:57:22.257Z,50.57
2019-01-20T19:59:49.328Z,51.70
2019-01-20T20:02:16.574Z,52.43
2019-01-20T20:04:43.841Z,58.63
2019-01-20T20:07:11.071Z,56.63
2019-01-20T20:09:38.187Z,57.97
2019-01-20T20:12:05.427Z,57.63
2019-01-20T20:14:33.047Z,56.87
2019-01-20T20:17:00.604Z,59.83
2019-01-20T20:19:28.087Z,57.73
2019-01-20T20:21:55.465Z,58.17
2019-01-20T20:24:25.441Z,53.33
2019-01-20T20:26:51.944Z,51.10
2019-01-20T20:29:19.059Z,53.00
2019-01-20T20:31:46.301Z,53.20
2019-01-20T20:34:13.683Z,58.70
2019-01-20T20:36:41.240Z,55.53
2019-01-20T20:39:08.620Z,55.90
2019-01-20T20:41:36.083Z,56.37
2019-01-20T20:44:03.465Z,51.00
2019-01-20T20:46:31.244Z,51.83
2019-01-20T20:48:58.539Z,52.20
2019-01-20T20:51:25.718Z,55.27
2019-01-20T20:53:53.178Z,54.40
2019-01-20T20:56:20.487Z,54.97
2019-01-20T20:58:47.664Z,50.27
2019-01-20T21:01:14.982Z,58.93
2019-01-20T21:03:42.414Z,51.27
2019-01-20T21:06:09.591Z,55.13
2019-01-20T21:08:36.744Z,54.90
2019-01-20T21:11:04.383Z,53.60
2019-01-20T21:13:32.966Z,51.17
2019-01-20T21:16:00.328Z,56.90
2019-01-20T21:18:27.734Z,53.00
2019-01-20T21:20:55.100Z,53.27
2019-01-20T21:23:22.242Z,51.97
2019-01-20T21:25:49.798Z,54.60
2019-01-20T21:28:17.940Z,51.77
2019-01-20T21:30:45.200Z,55.30
2019-01-20T21:33:12.225Z,57.90
2019-01-20T21:35:39.623Z,60.37
2019-01-20T21:38:07.152Z,60.37
2019-01-20T21:40:34.457Z,56.70
2019-01-20T21:43:01.658Z,55.17
2019-01-20T21:45:29.136Z,50.20
2019-01-20T21:47:56.161Z,52.13
2019-01-20T21:50:28.510Z,55.17
2019-01-20T21:52:55.914Z,56.40
2019-01-20T21:55:23.151Z,52.17
2019-01-20T21:57:51.460Z,54.27
2019-01-20T22:00:20.679Z,46.43
2019-01-20T22:02:48.022Z,57.43
2019-01-20T22:05:15.271Z,55.53
2019-01-20T22:07:42.739Z,52.87
2019-01-20T22:10:15.025Z,50.30
2019-01-20T22:12:42.987Z,51.30
2019-01-20T22:15:10.565Z,53.00
2019-01-20T22:17:38.106Z,51.30
2019-01-20T22:20:07.918Z,58.80
2019-01-20T22:22:35.039Z,59.47
2019-01-20T22:25:02.994Z,57.17
2019-01-20T22:27:30.066Z,55.63
2019-01-20T22:29:57.173Z,54.80
2019-01-20T22:32:24.623Z,56.87
2019-01-20T22:34:51.590Z,56.30
2019-01-20T22:37:18.658Z,60.90
2019-01-20T22:39:45.775Z,54.47
2019-01-20T22:42:13.286Z,55.80
2019-01-20T22:44:40.605Z,59.97
2019-01-20T22:47:08.125Z,60.93
2019-01-20T22:49:35.143Z,64.70
2019-01-20T22:52:02.397Z,57.23
2019-01-20T22:54:29.777Z,57.23
2019-01-20T22:56:56.815Z,55.10
2019-01-20T22:59:24.183Z,57.93
2019-01-20T23:01:51.300Z,61.33
2019-01-20T23:04:19.190Z,57.60
2019-01-20T23:06:46.362Z,60.57
2019-01-20T23:09:13.355Z,61.73
2019-01-20T23:11:40.403Z,49.70
2019-01-20T23:14:07.803Z,58.40
2019-01-20T23:16:34.940Z,56.37
2019-01-20T23:19:02.169Z,58.30
2019-01-20T23:21:29.406Z,61.33
2019-01-20T23:23:56.414Z,59.67
2019-01-20T23:26:24.051Z,56.37
2019-01-20T23:28:51.484Z,53.27
2019-01-20T23:31:18.731Z,52.37
2019-01-20T23:33:46.987Z,56.17
2019-01-20T23:36:13.964Z,55.77
2019-01-20T23:38:41.311Z,55.87
2019-01-20T23:41:08.390Z,62.73
2019-01-20T23:43:35.639Z,57.77
2019-01-20T23:46:02.873Z,57.67
2019-01-20T23:48:30.156Z,56.27
2019-01-20T23:50:57.174Z,56.97
2019-01-20T23:53:24.238Z,50.87
2019-01-20T23:55:51.511Z,60.67
2019-01-20T23:58:19.010Z,62.53
